Airfield :
LOGIN :

Register | Disclaimer

   EN    FR    IT 

 










Legend :    VFR   Marginal VFR   IFR   Intensive IFR   Very Intensive IFR
Visi :
Ceiling :
>= 8 km
>= 3000ft
5 to 8 km
1000 to 3000 ft
1500m to 5 km
500 to 1000 ft
800 to 1500m
200 to 500 ft
< 800m
< 200 ft
Symbols :   Thunderstorms  Fog  Heavy snow  Heavy precipitations  Wind > 20 kt
SIGMETs :     Misc.  Thunderstorms  Icing  Turbulence  Mountain Waves  Volcanic Ashes






- Airport Elevation : 13 ft
- IATA code : SNR


LFRZ - St-Nazaire

CURRENT METAR :
  • 230500Z AUTO 35002KT CAVOK 03/03 Q1026 TEMPO 0350 FG VV///

EXPIRED METARs :
  • 230430Z AUTO 02003KT 1400 1200 R25/1300U BR NSC 02/02 Q1026 TEMPO 0350 FG VV///
  • 230400Z AUTO 02003KT 8000 1300 R25/1600D NSC 04/03 Q1027 TEMPO 0350 FG VV///
  • 230330Z AUTO 01002KT 6000 1500 VV/// 04/03 Q1027 TEMPO 0350 FG NSC
  • 230300Z AUTO 01002KT 5000 1100 R25/1200N BR NSC 03/03 Q1026 TEMPO 2000 BR
  • 230230Z AUTO 03002KT CAVOK 03/02 Q1027 TEMPO 2000 BR

TAF TAF LFRZ
Valid from the 23 at 00:00 until the 24 at 00:00 UTC


222300Z 2300/2324 03005KT CAVOK
PROB40
TEMPO 2303/2308 2000 BR
PROB30
TEMPO 2305/2308 0350 FG VV///



MET'MAP, your aeronautical weather chart ! - Copyright ORBIFLY December 2007 - Disclaimer

ORBIFLY MET'MAP TEAM :

Programming & Development : Alexandra Zaïnal
Concept & original design : Baudouin d'Aumeries
Assistance for programming : Marc-Olivier Méhu
Technical & hardware support : Manuel Goepfert

Contact : metmap@orbifly.com




SOURCES & CREDITS :

   NOAA